createdAt,value
2018-09-21T00:01:02.554Z,3.60
2018-09-21T00:03:31.023Z,3.73
2018-09-21T00:05:59.542Z,3.60
2018-09-21T00:08:27.974Z,3.77
2018-09-21T00:10:56.461Z,3.77
2018-09-21T00:13:24.928Z,3.27
2018-09-21T00:15:53.383Z,4.30
2018-09-21T00:18:21.895Z,4.20
2018-09-21T00:20:50.492Z,3.90
2018-09-21T00:23:19.097Z,3.27
2018-09-21T00:25:47.625Z,3.87
2018-09-21T00:28:16.179Z,3.50
2018-09-21T00:30:45.000Z,3.50
2018-09-21T00:33:13.787Z,4.30
2018-09-21T00:35:42.731Z,4.27
2018-09-21T00:38:11.227Z,4.03
2018-09-21T00:40:39.870Z,4.20
2018-09-21T00:43:08.466Z,3.90
2018-09-21T00:45:37.332Z,4.17
2018-09-21T00:48:06.161Z,3.27
2018-09-21T00:50:34.877Z,3.97
2018-09-21T00:53:03.381Z,3.80
2018-09-21T00:55:31.822Z,4.33
2018-09-21T00:58:00.559Z,3.33
2018-09-21T01:00:29.041Z,4.27
2018-09-21T01:02:57.509Z,3.57
2018-09-21T01:05:26.033Z,3.70
2018-09-21T01:07:54.548Z,4.40
2018-09-21T01:10:23.384Z,3.73
2018-09-21T01:12:52.054Z,4.03
2018-09-21T01:15:20.575Z,4.27
2018-09-21T01:17:49.063Z,4.30
2018-09-21T01:20:17.562Z,4.20
2018-09-21T01:22:46.277Z,3.97
2018-09-21T01:25:14.712Z,5.00
2018-09-21T01:27:43.184Z,3.90
2018-09-21T01:30:11.645Z,4.80
2018-09-21T01:32:40.187Z,4.27
2018-09-21T01:35:08.766Z,4.63
2018-09-21T01:37:37.194Z,4.27
2018-09-21T01:40:05.761Z,3.93
2018-09-21T01:42:34.215Z,4.30
2018-09-21T01:45:02.760Z,4.10
2018-09-21T01:47:31.432Z,4.40
2018-09-21T01:49:59.977Z,4.50
2018-09-21T01:52:28.587Z,4.17
2018-09-21T01:54:57.088Z,4.60
2018-09-21T01:57:25.640Z,4.17
2018-09-21T01:59:54.128Z,4.00
2018-09-21T02:02:22.619Z,4.00
2018-09-21T02:04:51.101Z,3.87
2018-09-21T02:07:19.581Z,4.43
2018-09-21T02:09:48.036Z,4.17
2018-09-21T02:12:16.464Z,4.33
2018-09-21T02:14:44.952Z,4.37
2018-09-21T02:17:13.486Z,4.63
2018-09-21T02:19:42.004Z,4.03
2018-09-21T02:22:10.525Z,4.60
2018-09-21T02:24:39.025Z,4.60
2018-09-21T02:27:07.460Z,4.20
2018-09-21T02:29:36.343Z,4.43
2018-09-21T02:32:05.043Z,4.07
2018-09-21T02:34:33.549Z,4.60
2018-09-21T02:37:03.884Z,4.63
2018-09-21T02:39:32.356Z,4.40
2018-09-21T02:42:00.892Z,4.60
2018-09-21T02:44:29.656Z,4.33
2018-09-21T02:46:58.138Z,4.60
2018-09-21T02:49:26.627Z,4.40
2018-09-21T02:51:55.109Z,5.13
2018-09-21T02:54:23.574Z,4.80
2018-09-21T02:56:52.313Z,4.63
2018-09-21T02:59:21.116Z,4.70
2018-09-21T03:01:50.385Z,5.40
2018-09-21T03:04:19.094Z,4.97
2018-09-21T03:06:47.577Z,4.03
2018-09-21T03:09:16.617Z,4.73
2018-09-21T03:11:45.258Z,5.23
2018-09-21T03:14:14.115Z,4.50
2018-09-21T03:16:42.626Z,4.77
2018-09-21T03:19:11.196Z,4.63
2018-09-21T03:21:39.731Z,4.97
2018-09-21T03:24:08.503Z,4.93
2018-09-21T03:26:36.974Z,5.10
2018-09-21T03:29:05.491Z,4.60
2018-09-21T03:31:34.103Z,5.00
2018-09-21T03:34:02.713Z,4.70
2018-09-21T03:36:31.188Z,4.47
2018-09-21T03:38:59.699Z,4.00
2018-09-21T03:41:28.389Z,4.80
2018-09-21T03:43:57.147Z,5.30
2018-09-21T03:46:25.677Z,5.00
2018-09-21T03:48:54.376Z,5.00
2018-09-21T03:51:23.128Z,5.00
2018-09-21T03:53:51.576Z,4.30
2018-09-21T03:56:20.012Z,4.60
2018-09-21T03:58:48.866Z,4.93
2018-09-21T04:01:18.162Z,5.20
2018-09-21T04:03:47.089Z,5.13
2018-09-21T04:06:15.875Z,4.87
2018-09-21T04:08:44.365Z,4.77
2018-09-21T04:11:13.116Z,4.63
2018-09-21T04:13:41.734Z,5.03
2018-09-21T04:16:10.479Z,4.83
2018-09-21T04:18:39.339Z,4.93
2018-09-21T04:21:08.274Z,4.40
2018-09-21T04:23:37.091Z,4.30
2018-09-21T04:26:06.356Z,4.60
2018-09-21T04:28:35.074Z,4.87
2018-09-21T04:31:03.668Z,4.87
2018-09-21T04:33:32.177Z,3.93
2018-09-21T04:36:04.217Z,4.80
2018-09-21T04:38:32.842Z,4.60
2018-09-21T04:41:02.853Z,4.57
2018-09-21T04:43:32.252Z,4.47
2018-09-21T04:46:04.228Z,5.23
2018-09-21T04:48:34.409Z,4.83
2018-09-21T04:51:04.033Z,4.30
2018-09-21T04:53:33.976Z,5.10
2018-09-21T04:56:02.600Z,4.03
2018-09-21T04:58:31.065Z,4.50
2018-09-21T05:01:00.213Z,4.37
2018-09-21T05:03:29.055Z,4.93
2018-09-21T05:05:57.549Z,4.40
2018-09-21T05:08:26.055Z,4.70
2018-09-21T05:10:54.554Z,5.20
2018-09-21T05:13:23.560Z,5.43
2018-09-21T05:15:52.076Z,5.33
2018-09-21T05:18:20.512Z,5.00
2018-09-21T05:20:50.083Z,5.50
2018-09-21T05:23:18.827Z,4.70
2018-09-21T05:25:47.592Z,5.13
2018-09-21T05:28:17.746Z,4.60
2018-09-21T05:30:46.719Z,5.07
2018-09-21T05:33:15.416Z,4.43
2018-09-21T05:35:44.386Z,5.50
2018-09-21T05:38:13.315Z,5.37
2018-09-21T05:40:41.885Z,5.23
2018-09-21T05:43:10.498Z,5.17
2018-09-21T05:45:39.687Z,5.60
2018-09-21T05:48:08.734Z,4.87
2018-09-21T05:50:37.613Z,5.47
2018-09-21T05:53:07.653Z,5.40
2018-09-21T05:55:36.295Z,4.97
2018-09-21T05:58:05.254Z,5.87
2018-09-21T06:00:34.119Z,5.33
2018-09-21T06:03:02.731Z,5.30
2018-09-21T06:05:31.561Z,5.43
2018-09-21T06:08:00.578Z,5.60
2018-09-21T06:10:29.016Z,6.20
2018-09-21T06:12:57.537Z,6.20
2018-09-21T06:15:26.021Z,5.90
2018-09-21T06:17:54.483Z,5.73
2018-09-21T06:20:23.143Z,5.87
2018-09-21T06:22:51.754Z,6.20
2018-09-21T06:25:20.458Z,5.80
2018-09-21T06:27:49.084Z,4.93
2018-09-21T06:30:17.788Z,5.77
2018-09-21T06:32:46.520Z,5.00
2018-09-21T06:35:15.941Z,5.93
2018-09-21T06:37:44.513Z,6.07
2018-09-21T06:40:13.230Z,5.73
2018-09-21T06:42:42.353Z,6.20
2018-09-21T06:45:11.320Z,5.80
2018-09-21T06:47:39.801Z,5.30
2018-09-21T06:50:08.392Z,5.80
2018-09-21T06:52:37.157Z,5.37
2018-09-21T06:55:06.506Z,5.37
2018-09-21T06:57:35.232Z,5.10
2018-09-21T07:00:04.261Z,5.83
2018-09-21T07:02:32.925Z,5.20
2018-09-21T07:05:07.195Z,4.87
2018-09-21T07:07:35.873Z,5.03
2018-09-21T07:10:04.758Z,5.30
2018-09-21T07:12:33.544Z,4.60
2018-09-21T07:15:02.321Z,4.70
2018-09-21T07:17:31.328Z,4.93
2018-09-21T07:19:59.932Z,4.53
2018-09-21T07:22:30.253Z,4.97
2018-09-21T07:24:58.733Z,4.63
2018-09-21T07:27:27.218Z,5.27
2018-09-21T07:29:55.786Z,4.60
2018-09-21T07:32:24.746Z,4.13
2018-09-21T07:34:53.945Z,3.83
2018-09-21T07:37:22.545Z,3.87
2018-09-21T07:39:51.117Z,4.20
2018-09-21T07:42:19.609Z,3.93
2018-09-21T07:44:48.122Z,4.30
2018-09-21T07:47:16.656Z,3.47
2018-09-21T07:49:45.101Z,3.30
2018-09-21T07:52:13.634Z,3.30
2018-09-21T07:54:42.098Z,3.10
2018-09-21T07:57:10.585Z,3.20
2018-09-21T07:59:39.056Z,3.23
2018-09-21T08:02:07.527Z,3.90
2018-09-21T08:04:36.011Z,2.73
2018-09-21T08:07:04.524Z,3.10
2018-09-21T08:09:32.937Z,2.80
2018-09-21T08:12:01.564Z,2.70
2018-09-21T08:14:30.322Z,2.73
2018-09-21T08:16:58.954Z,2.63
2018-09-21T08:19:27.552Z,2.50
2018-09-21T08:21:55.999Z,2.33
2018-09-21T08:24:25.243Z,2.77
2018-09-21T08:26:54.379Z,2.37
2018-09-21T08:29:23.130Z,2.20
2018-09-21T08:31:51.620Z,2.60
2018-09-21T08:34:20.305Z,2.23
2018-09-21T08:36:48.861Z,2.33
2018-09-21T08:39:17.471Z,2.40
2018-09-21T08:41:48.073Z,2.87
2018-09-21T08:44:16.614Z,3.33
2018-09-21T08:46:45.060Z,2.37
2018-09-21T08:49:13.678Z,3.13
2018-09-21T08:51:42.274Z,2.80
2018-09-21T08:54:10.799Z,2.57
2018-09-21T08:56:39.245Z,2.47
2018-09-21T08:59:07.749Z,2.20
2018-09-21T09:01:36.302Z,2.20
2018-09-21T09:04:04.959Z,2.90
2018-09-21T09:06:33.453Z,2.50
2018-09-21T09:09:02.075Z,2.47
2018-09-21T09:11:30.554Z,2.47
2018-09-21T09:13:59.092Z,2.97
2018-09-21T09:16:27.533Z,2.50
2018-09-21T09:18:55.968Z,2.53
2018-09-21T09:21:24.574Z,2.80
2018-09-21T09:23:53.047Z,2.50
2018-09-21T09:26:21.594Z,2.80
2018-09-21T09:28:50.079Z,2.60
2018-09-21T09:31:18.589Z,2.50
2018-09-21T09:33:48.084Z,2.97
2018-09-21T09:36:16.617Z,2.40
2018-09-21T09:38:45.058Z,2.80
2018-09-21T09:41:13.519Z,2.20
2018-09-21T09:43:41.981Z,3.17
2018-09-21T09:46:10.414Z,3.23
2018-09-21T09:48:38.945Z,2.17
2018-09-21T09:51:07.550Z,2.53
2018-09-21T09:53:36.017Z,2.80
2018-09-21T09:56:04.575Z,2.97
2018-09-21T09:58:33.152Z,3.07
2018-09-21T10:01:01.663Z,2.57
2018-09-21T10:03:30.213Z,3.07
2018-09-21T10:05:58.727Z,2.57
2018-09-21T10:08:27.193Z,3.03
2018-09-21T10:10:55.701Z,3.17
2018-09-21T10:13:24.246Z,3.87
2018-09-21T10:15:52.733Z,3.30
2018-09-21T10:18:21.339Z,2.67
2018-09-21T10:20:49.989Z,2.50
2018-09-21T10:23:18.379Z,2.73
2018-09-21T10:25:46.837Z,2.93
2018-09-21T10:28:15.405Z,3.47
2018-09-21T10:30:43.748Z,3.17
2018-09-21T10:33:12.287Z,3.23
2018-09-21T10:35:41.299Z,3.87
2018-09-21T10:38:10.112Z,4.73
2018-09-21T10:40:38.886Z,2.97
2018-09-21T10:43:08.495Z,3.20
2018-09-21T10:45:37.430Z,3.30
2018-09-21T10:48:06.725Z,3.17
2018-09-21T10:50:35.464Z,2.90
2018-09-21T10:53:03.967Z,2.70
2018-09-21T10:55:33.014Z,3.43
2018-09-21T10:58:01.465Z,3.13
2018-09-21T11:00:29.921Z,2.90
2018-09-21T11:02:58.451Z,3.23
2018-09-21T11:05:26.949Z,3.07
2018-09-21T11:07:55.404Z,2.97
2018-09-21T11:10:23.855Z,3.00
2018-09-21T11:12:52.297Z,3.27
2018-09-21T11:15:20.797Z,3.80
2018-09-21T11:17:49.205Z,3.37
2018-09-21T11:20:17.785Z,3.40
2018-09-21T11:22:46.445Z,3.30
2018-09-21T11:25:15.210Z,3.53
2018-09-21T11:27:44.069Z,3.03
2018-09-21T11:30:13.721Z,2.77
2018-09-21T11:32:42.291Z,3.17
2018-09-21T11:35:13.173Z,3.47
2018-09-21T11:37:41.640Z,3.10
2018-09-21T11:40:10.165Z,2.93
2018-09-21T11:42:38.648Z,4.03
2018-09-21T11:45:07.716Z,3.03
2018-09-21T11:47:36.400Z,3.13
2018-09-21T11:50:04.859Z,2.77
2018-09-21T11:52:33.377Z,3.40
2018-09-21T11:55:02.006Z,3.03
2018-09-21T11:57:30.548Z,3.90
2018-09-21T11:59:59.022Z,3.53
2018-09-21T12:02:27.575Z,3.77
2018-09-21T12:04:56.041Z,3.00
2018-09-21T12:07:24.505Z,3.07
2018-09-21T12:09:53.015Z,3.33
2018-09-21T12:12:22.916Z,2.90
2018-09-21T12:14:51.432Z,2.80
2018-09-21T12:17:19.918Z,2.30
2018-09-21T12:19:48.484Z,2.77
2018-09-21T12:22:18.429Z,2.50
2018-09-21T12:24:46.894Z,2.60
2018-09-21T12:27:15.307Z,2.80
2018-09-21T12:29:44.000Z,3.00
2018-09-21T12:32:12.464Z,2.33
2018-09-21T12:34:41.112Z,2.13
2018-09-21T12:37:10.045Z,1.67
2018-09-21T12:39:38.686Z,1.77
2018-09-21T12:42:07.558Z,1.90
2018-09-21T12:44:36.358Z,1.70
2018-09-21T12:47:05.128Z,2.53
2018-09-21T12:49:36.099Z,1.87
2018-09-21T12:52:04.918Z,1.40
2018-09-21T12:54:33.655Z,2.03
2018-09-21T12:57:02.350Z,1.93
2018-09-21T12:59:30.947Z,1.47
2018-09-21T13:01:59.471Z,1.70
2018-09-21T13:04:29.140Z,1.93
2018-09-21T13:06:57.744Z,1.53
2018-09-21T13:09:26.529Z,1.67
2018-09-21T13:11:55.107Z,2.03
2018-09-21T13:14:23.983Z,1.40
2018-09-21T13:16:52.754Z,1.33
2018-09-21T13:19:21.383Z,1.77
2018-09-21T13:21:50.288Z,1.53
2018-09-21T13:24:18.998Z,1.07
2018-09-21T13:26:47.857Z,1.30
2018-09-21T13:29:16.918Z,1.17
2018-09-21T13:31:45.837Z,1.77
2018-09-21T13:34:14.840Z,1.33
2018-09-21T13:36:43.432Z,1.20
2018-09-21T13:39:13.227Z,1.90
2018-09-21T13:41:42.114Z,1.20
2018-09-21T13:44:10.851Z,1.20
2018-09-21T13:46:39.648Z,1.27
2018-09-21T13:49:08.270Z,1.23
2018-09-21T13:51:36.862Z,1.00
2018-09-21T13:54:05.620Z,1.47
2018-09-21T13:56:34.536Z,1.10
2018-09-21T13:59:03.297Z,1.10
2018-09-21T14:01:31.809Z,1.20
2018-09-21T14:04:00.497Z,1.30
2018-09-21T14:06:29.297Z,1.17
2018-09-21T14:08:58.298Z,2.70
2018-09-21T14:11:27.117Z,1.33
2018-09-21T14:13:55.996Z,1.20
2018-09-21T14:16:25.002Z,1.70
2018-09-21T14:18:53.982Z,1.10
2018-09-21T14:21:22.868Z,1.20
2018-09-21T14:23:51.646Z,1.20
2018-09-21T14:26:20.603Z,1.20
2018-09-21T14:28:49.749Z,0.90
2018-09-21T14:31:18.580Z,1.10
2018-09-21T14:33:47.095Z,1.27
2018-09-21T14:36:15.815Z,1.00
2018-09-21T14:38:44.875Z,0.83
2018-09-21T14:41:13.754Z,0.87
2018-09-21T14:43:42.360Z,1.10
2018-09-21T14:46:11.087Z,1.47
2018-09-21T14:48:40.022Z,1.17
2018-09-21T14:51:09.077Z,1.23
2018-09-21T14:53:38.149Z,0.87
2018-09-21T14:56:06.734Z,0.87
2018-09-21T14:58:35.344Z,1.33
2018-09-21T15:01:04.066Z,0.93
2018-09-21T15:03:32.635Z,0.90
2018-09-21T15:06:01.515Z,1.30
2018-09-21T15:08:30.205Z,0.90
2018-09-21T15:10:58.914Z,1.00
2018-09-21T15:13:27.462Z,1.07
2018-09-21T15:15:56.243Z,2.00
2018-09-21T15:18:24.979Z,1.10
2018-09-21T15:20:53.488Z,1.20
2018-09-21T15:23:22.056Z,1.80
2018-09-21T15:25:50.729Z,1.30
2018-09-21T15:28:19.515Z,0.90
2018-09-21T15:30:48.457Z,1.20
2018-09-21T15:33:17.209Z,1.30
2018-09-21T15:35:46.104Z,1.27
2018-09-21T15:38:14.906Z,1.50
2018-09-21T15:40:43.558Z,0.83
2018-09-21T15:43:12.382Z,1.43
2018-09-21T15:45:41.193Z,1.00
2018-09-21T15:48:10.188Z,1.20
2018-09-21T15:50:39.274Z,1.20
2018-09-21T15:53:08.320Z,0.90
2018-09-21T15:55:37.049Z,0.97
2018-09-21T15:58:05.886Z,1.10
2018-09-21T16:00:34.860Z,1.43
2018-09-21T16:03:03.617Z,1.40
2018-09-21T16:05:32.122Z,1.30
2018-09-21T16:08:00.868Z,1.00
2018-09-21T16:10:29.434Z,0.97
2018-09-21T16:12:58.265Z,1.10
2018-09-21T16:15:26.849Z,1.20
2018-09-21T16:17:55.485Z,1.40
2018-09-21T16:20:24.115Z,1.10
2018-09-21T16:22:52.908Z,1.03
2018-09-21T16:25:21.445Z,1.07
2018-09-21T16:27:50.180Z,1.40
2018-09-21T16:30:18.748Z,0.80
2018-09-21T16:32:47.520Z,1.03
2018-09-21T16:35:16.133Z,0.97
2018-09-21T16:37:44.902Z,1.30
2018-09-21T16:40:13.513Z,1.50
2018-09-21T16:42:42.192Z,1.00
2018-09-21T16:45:12.076Z,1.10
2018-09-21T16:47:40.575Z,1.53
2018-09-21T16:50:09.826Z,2.13
2018-09-21T16:52:38.315Z,1.20
2018-09-21T16:55:06.956Z,1.10
2018-09-21T16:57:35.661Z,1.53
2018-09-21T17:00:04.810Z,1.17
2018-09-21T17:02:33.473Z,1.23
2018-09-21T17:05:02.316Z,1.37
2018-09-21T17:07:30.933Z,1.87
2018-09-21T17:09:59.455Z,1.30
2018-09-21T17:12:28.060Z,1.27
2018-09-21T17:14:56.898Z,1.20
2018-09-21T17:17:25.403Z,0.93
2018-09-21T17:19:54.029Z,0.90
2018-09-21T17:22:22.565Z,1.17
2018-09-21T17:24:51.109Z,1.33
2018-09-21T17:27:19.768Z,1.20
2018-09-21T17:29:48.263Z,1.50
2018-09-21T17:32:16.725Z,1.47
2018-09-21T17:34:45.538Z,1.33
2018-09-21T17:37:14.050Z,1.60
2018-09-21T17:39:42.541Z,2.43
2018-09-21T17:42:11.030Z,1.97
2018-09-21T17:44:39.533Z,1.63
2018-09-21T17:47:08.022Z,1.53
2018-09-21T17:49:36.553Z,1.37
2018-09-21T17:52:05.040Z,1.40
2018-09-21T17:54:33.536Z,1.40
2018-09-21T17:57:02.035Z,2.13
2018-09-21T17:59:30.507Z,1.30
2018-09-21T18:01:58.957Z,1.40
2018-09-21T18:04:27.847Z,2.50
2018-09-21T18:06:56.398Z,1.10
2018-09-21T18:09:24.887Z,1.93
2018-09-21T18:11:53.413Z,1.63
2018-09-21T18:14:21.918Z,1.97
2018-09-21T18:16:50.384Z,1.60
2018-09-21T18:19:19.010Z,1.57
2018-09-21T18:21:47.665Z,1.57
2018-09-21T18:24:16.113Z,2.17
2018-09-21T18:26:44.725Z,1.70
2018-09-21T18:29:13.187Z,1.93
2018-09-21T18:31:41.655Z,2.10
2018-09-21T18:34:10.213Z,1.93
2018-09-21T18:36:38.751Z,1.63
2018-09-21T18:39:08.019Z,1.60
2018-09-21T18:41:36.606Z,1.63
2018-09-21T18:44:05.693Z,1.80
2018-09-21T18:46:34.154Z,1.90
2018-09-21T18:49:02.875Z,2.10
2018-09-21T18:51:31.376Z,1.80
2018-09-21T18:54:00.320Z,1.90
2018-09-21T18:56:29.204Z,2.10
2018-09-21T18:58:58.483Z,1.60
2018-09-21T19:01:27.533Z,1.80
2018-09-21T19:03:56.544Z,1.60
2018-09-21T19:06:25.555Z,1.40
2018-09-21T19:08:54.194Z,1.67
2018-09-21T19:11:22.946Z,2.67
2018-09-21T19:13:51.825Z,1.80
2018-09-21T19:16:20.705Z,2.40
2018-09-21T19:18:49.380Z,2.00
2018-09-21T19:21:18.220Z,1.97
2018-09-21T19:23:47.305Z,1.40
2018-09-21T19:26:16.263Z,3.20
2018-09-21T19:28:45.351Z,1.93
2018-09-21T19:31:14.219Z,1.93
2018-09-21T19:33:43.241Z,1.83
2018-09-21T19:36:13.250Z,1.63
2018-09-21T19:38:42.525Z,1.83
2018-09-21T19:41:11.046Z,2.43
2018-09-21T19:43:39.772Z,2.20
2018-09-21T19:46:08.366Z,1.83
2018-09-21T19:48:36.997Z,2.73
2018-09-21T19:51:05.546Z,1.90
2018-09-21T19:53:34.096Z,1.93
2018-09-21T19:56:02.634Z,1.97
2018-09-21T19:58:31.077Z,2.30
2018-09-21T20:01:00.660Z,1.77
2018-09-21T20:03:29.240Z,2.07
2018-09-21T20:05:57.774Z,2.10
2018-09-21T20:08:26.404Z,2.03
2018-09-21T20:10:55.192Z,2.80
2018-09-21T20:13:23.741Z,2.70
2018-09-21T20:15:52.327Z,2.07
2018-09-21T20:18:20.916Z,2.40
2018-09-21T20:20:49.521Z,1.83
2018-09-21T20:23:18.118Z,2.03
2018-09-21T20:25:47.411Z,2.17
2018-09-21T20:28:16.099Z,2.10
2018-09-21T20:30:49.951Z,1.87
2018-09-21T20:33:23.630Z,2.13
2018-09-21T20:35:52.140Z,2.10
2018-09-21T20:38:20.810Z,2.33
2018-09-21T20:40:49.700Z,2.53
2018-09-21T20:43:18.596Z,1.43
2018-09-21T20:45:47.147Z,2.20
2018-09-21T20:48:15.690Z,2.53
2018-09-21T20:50:44.188Z,2.27
2018-09-21T20:53:12.843Z,2.43
2018-09-21T20:55:41.512Z,2.00
2018-09-21T20:58:10.583Z,2.23
2018-09-21T21:00:39.809Z,2.20
2018-09-21T21:03:08.481Z,2.90
2018-09-21T21:05:37.169Z,2.53
2018-09-21T21:08:05.951Z,2.53
2018-09-21T21:10:34.526Z,2.13
2018-09-21T21:13:03.578Z,2.67
2018-09-21T21:15:32.060Z,2.77
2018-09-21T21:18:00.590Z,2.63
2018-09-21T21:20:29.219Z,2.70
2018-09-21T21:22:57.904Z,2.40
2018-09-21T21:25:26.462Z,2.13
2018-09-21T21:27:55.233Z,2.40
2018-09-21T21:30:23.819Z,2.70
2018-09-21T21:32:52.513Z,2.73
2018-09-21T21:35:21.267Z,2.70
2018-09-21T21:37:50.006Z,3.30
2018-09-21T21:40:18.743Z,2.80
2018-09-21T21:42:47.467Z,3.40
2018-09-21T21:45:16.160Z,3.43
2018-09-21T21:47:44.602Z,2.70
2018-09-21T21:50:13.090Z,2.80
2018-09-21T21:52:41.694Z,3.03
2018-09-21T21:55:10.400Z,3.60
2018-09-21T21:57:38.866Z,2.87
2018-09-21T22:00:09.120Z,2.80
2018-09-21T22:02:37.711Z,2.37
2018-09-21T22:05:06.249Z,2.70
2018-09-21T22:07:36.157Z,3.20
2018-09-21T22:10:06.350Z,4.63
2018-09-21T22:12:40.187Z,3.93
2018-09-21T22:15:12.687Z,2.97
2018-09-21T22:17:41.205Z,2.77
2018-09-21T22:20:10.030Z,3.47
2018-09-21T22:22:38.550Z,3.10
2018-09-21T22:25:07.793Z,3.07
2018-09-21T22:27:36.393Z,3.33
2018-09-21T22:30:05.369Z,3.27
2018-09-21T22:32:34.100Z,2.93
2018-09-21T22:35:02.689Z,2.97
2018-09-21T22:37:31.257Z,3.37
2018-09-21T22:39:59.840Z,3.10
2018-09-21T22:42:28.442Z,2.97
2018-09-21T22:44:57.283Z,3.70
2018-09-21T22:47:27.486Z,3.10
2018-09-21T22:49:56.098Z,3.57
2018-09-21T22:52:24.609Z,3.43
2018-09-21T22:54:53.100Z,3.53
2018-09-21T22:57:21.624Z,2.87
2018-09-21T22:59:50.397Z,2.83
2018-09-21T23:02:18.963Z,2.70
2018-09-21T23:04:47.641Z,3.13
2018-09-21T23:07:16.162Z,4.00
2018-09-21T23:09:44.810Z,3.17
2018-09-21T23:12:13.285Z,3.33
2018-09-21T23:14:41.721Z,3.00
2018-09-21T23:17:10.656Z,2.80
2018-09-21T23:19:39.114Z,3.00
2018-09-21T23:22:08.527Z,2.60
2018-09-21T23:24:36.965Z,3.17
2018-09-21T23:27:05.522Z,3.47
2018-09-21T23:29:34.005Z,2.87
2018-09-21T23:32:02.593Z,3.60
2018-09-21T23:34:31.073Z,3.20
2018-09-21T23:36:59.781Z,3.27
2018-09-21T23:39:28.282Z,3.10
2018-09-21T23:41:56.854Z,3.23
2018-09-21T23:44:25.475Z,3.23
2018-09-21T23:46:53.959Z,2.53
2018-09-21T23:49:22.515Z,3.13
2018-09-21T23:51:50.969Z,2.73
2018-09-21T23:54:19.598Z,3.63
2018-09-21T23:56:48.450Z,3.40
2018-09-21T23:59:17.391Z,3.47
